Airfield :
LOGIN :

Register | Disclaimer

   EN    FR    IT 

 










Legend :    VFR   Marginal VFR   IFR   Intensive IFR   Very Intensive IFR
Visi :
Ceiling :
>= 8 km
>= 3000ft
5 to 8 km
1000 to 3000 ft
1500m to 5 km
500 to 1000 ft
800 to 1500m
200 to 500 ft
< 800m
< 200 ft
Symbols :   Thunderstorms  Fog  Heavy snow  Heavy precipitations  Wind > 20 kt
SIGMETs :     Misc.  Thunderstorms  Icing  Turbulence  Mountain Waves  Volcanic Ashes






- Airport Elevation : -15 ft
- IATA code : RTM


EHRD - Rotterdam Zestienhoven

CURRENT METAR :
  • 021625Z AUTO 07004KT 050V110 9999 NCD 13/06 Q1028 NOSIG

EXPIRED METARs :
  • 021555Z AUTO 09004KT 050V120 9999 NCD 13/06 Q1028 NOSIG
  • 021525Z AUTO 10005KT 060V170 9999 NCD 14/06 Q1028 NOSIG
  • 021455Z AUTO 10006KT 060V140 9999 NCD 13/05 Q1029 NOSIG
  • 021425Z AUTO 11005KT 050V160 9999 NCD 13/07 Q1029 NOSIG
  • 021355Z AUTO 09006KT 050V130 9999 NCD 13/05 Q1029 NOSIG

TAF COR TAF EHRD
Valid from the 02 at 12:00 until the 03 at 18:00 UTC


021127Z 0212/0318 12007KT CAVOK
BECMG 0220/0223 VRB03KT 4000 MIFG BCFG
PROB30 0303/0310 0500 FG SCT001 BKN002
BECMG 0308/0311 28005KT 9999 NSW SCT015
PROB30
TEMPO 0310/0312 2500 BR BKN004
BECMG 0316/0318 32005KT 4000 BR SCT002 BKN003



MET'MAP, your aeronautical weather chart ! - Copyright ORBIFLY December 2007 - Disclaimer

ORBIFLY MET'MAP TEAM :

Programming & Development : Alexandra Zaïnal
Concept & original design : Baudouin d'Aumeries
Assistance for programming : Marc-Olivier Méhu
Technical & hardware support : Manuel Goepfert

Contact : metmap@orbifly.com




SOURCES & CREDITS :

   NOAA